createdAt,value
2022-12-16T00:02:14.225Z,18.19
2022-12-16T00:04:40.451Z,18.19
2022-12-16T00:07:06.647Z,17.97
2022-12-16T00:09:32.863Z,18.18
2022-12-16T00:11:59.081Z,18.18
2022-12-16T00:14:25.435Z,18.16
2022-12-16T00:16:51.736Z,18.15
2022-12-16T00:19:18.030Z,18.14
2022-12-16T00:21:44.348Z,18.12
2022-12-16T00:24:10.569Z,18.10
2022-12-16T00:26:36.766Z,18.09
2022-12-16T00:29:03.039Z,18.07
2022-12-16T00:31:29.413Z,18.05
2022-12-16T00:33:57.585Z,18.04
2022-12-16T00:36:23.791Z,18.04
2022-12-16T00:38:50.151Z,18.07
2022-12-16T00:41:16.357Z,18.06
2022-12-16T00:43:42.567Z,18.04
2022-12-16T00:46:09.097Z,18.02
2022-12-16T00:48:35.413Z,18.01
2022-12-16T00:51:03.725Z,18.01
2022-12-16T00:53:30.093Z,18.01
2022-12-16T00:55:56.551Z,17.97
2022-12-16T00:58:22.817Z,17.96
2022-12-16T01:00:49.081Z,17.96
2022-12-16T01:03:21.106Z,17.97
2022-12-16T01:05:47.920Z,17.93
2022-12-16T01:08:16.108Z,17.93
2022-12-16T01:10:42.454Z,17.94
2022-12-16T01:13:08.726Z,17.94
2022-12-16T01:15:35.954Z,17.93
2022-12-16T01:18:02.151Z,17.91
2022-12-16T01:20:28.386Z,17.91
2022-12-16T01:22:54.704Z,17.91
2022-12-16T01:25:21.112Z,17.94
2022-12-16T01:27:47.289Z,17.94
2022-12-16T01:30:13.511Z,17.98
2022-12-16T01:32:39.797Z,18.00
2022-12-16T01:35:18.131Z,18.00
2022-12-16T01:37:52.155Z,17.99
2022-12-16T01:40:21.023Z,17.97
2022-12-16T01:42:47.226Z,17.96
2022-12-16T01:45:14.611Z,17.97
2022-12-16T01:47:40.914Z,17.97
2022-12-16T01:50:07.093Z,17.97
2022-12-16T01:52:33.428Z,17.95
2022-12-16T01:54:59.669Z,17.94
2022-12-16T01:57:28.030Z,17.94
2022-12-16T01:59:54.278Z,17.94
2022-12-16T02:02:20.574Z,17.93
2022-12-16T02:04:46.876Z,17.92
2022-12-16T02:07:13.075Z,17.91
2022-12-16T02:09:39.472Z,17.91
2022-12-16T02:12:05.690Z,17.91
2022-12-16T02:14:34.065Z,17.89
2022-12-16T02:17:00.303Z,17.89
2022-12-16T02:19:26.574Z,17.88
2022-12-16T02:21:52.729Z,17.86
2022-12-16T02:24:21.101Z,17.84
2022-12-16T02:26:47.285Z,17.81
2022-12-16T02:29:16.508Z,17.82
2022-12-16T02:31:42.719Z,17.82
2022-12-16T02:34:08.939Z,17.83
2022-12-16T02:36:35.128Z,17.82
2022-12-16T02:39:01.315Z,17.80
2022-12-16T02:41:27.534Z,17.79
2022-12-16T02:43:53.782Z,17.79
2022-12-16T02:46:21.647Z,17.80
2022-12-16T02:48:47.839Z,17.79
2022-12-16T02:51:15.164Z,17.79
2022-12-16T02:53:41.475Z,17.79
2022-12-16T02:56:07.676Z,17.77
2022-12-16T02:58:33.886Z,17.79
2022-12-16T03:01:00.178Z,17.77
2022-12-16T03:03:26.487Z,17.77
2022-12-16T03:05:52.883Z,17.76
2022-12-16T03:08:19.242Z,17.74
2022-12-16T03:10:45.495Z,17.74
2022-12-16T03:13:11.694Z,17.75
2022-12-16T03:15:37.918Z,17.74
2022-12-16T03:18:04.110Z,17.73
2022-12-16T03:20:30.429Z,17.71
2022-12-16T03:22:56.658Z,17.70
2022-12-16T03:25:22.892Z,17.69
2022-12-16T03:27:49.127Z,17.70
2022-12-16T03:30:15.383Z,17.71
2022-12-16T03:32:41.564Z,17.71
2022-12-16T03:35:07.741Z,17.69
2022-12-16T03:37:33.949Z,17.70
2022-12-16T03:40:00.141Z,17.71
2022-12-16T03:42:26.454Z,17.69
2022-12-16T03:44:52.721Z,17.67
2022-12-16T03:47:23.660Z,17.65
2022-12-16T03:49:50.320Z,17.66
2022-12-16T03:52:16.497Z,17.64
2022-12-16T03:54:42.727Z,17.64
2022-12-16T03:57:14.714Z,17.64
2022-12-16T03:59:41.792Z,17.66
2022-12-16T04:02:08.156Z,17.66
2022-12-16T04:04:34.431Z,17.64
2022-12-16T04:07:00.643Z,17.60
2022-12-16T04:09:26.933Z,17.56
2022-12-16T04:11:53.199Z,17.51
2022-12-16T04:14:19.358Z,17.46
2022-12-16T04:16:45.576Z,17.42
2022-12-16T04:19:11.855Z,17.40
2022-12-16T04:21:38.056Z,17.38
2022-12-16T04:24:04.431Z,17.35
2022-12-16T04:26:30.619Z,17.38
2022-12-16T04:28:56.847Z,17.40
2022-12-16T04:31:23.101Z,17.41
2022-12-16T04:33:49.343Z,17.43
2022-12-16T04:36:15.527Z,17.49
2022-12-16T04:38:41.782Z,17.50
2022-12-16T04:41:07.972Z,17.50
2022-12-16T04:43:34.506Z,17.51
2022-12-16T04:46:01.077Z,17.51
2022-12-16T04:48:27.296Z,17.53
2022-12-16T04:50:53.498Z,17.54
2022-12-16T04:53:19.709Z,17.54
2022-12-16T04:55:45.983Z,17.56
2022-12-16T04:58:12.157Z,17.56
2022-12-16T05:00:38.507Z,17.58
2022-12-16T05:03:04.760Z,17.57
2022-12-16T05:05:31.107Z,17.55
2022-12-16T05:07:57.558Z,17.55
2022-12-16T05:10:23.737Z,17.57
2022-12-16T05:12:49.939Z,17.58
2022-12-16T05:15:16.111Z,17.56
2022-12-16T05:17:42.370Z,17.56
2022-12-16T05:20:08.536Z,17.56
2022-12-16T05:22:34.853Z,17.56
2022-12-16T05:25:01.080Z,17.55
2022-12-16T05:27:27.328Z,17.54
2022-12-16T05:29:53.609Z,17.54
2022-12-16T05:32:19.781Z,17.55
2022-12-16T05:34:46.041Z,17.54
2022-12-16T05:37:13.243Z,17.55
2022-12-16T05:39:40.611Z,17.55
2022-12-16T05:42:07.262Z,17.57
2022-12-16T05:44:33.502Z,17.60
2022-12-16T05:46:59.999Z,17.62
2022-12-16T05:49:29.589Z,17.63
2022-12-16T05:51:55.899Z,17.62
2022-12-16T05:54:22.084Z,17.59
2022-12-16T05:56:48.275Z,17.60
2022-12-16T05:59:14.537Z,17.60
2022-12-16T06:01:40.826Z,17.58
2022-12-16T06:04:07.171Z,17.58
2022-12-16T06:06:33.411Z,17.59
2022-12-16T06:08:59.599Z,17.59
2022-12-16T06:11:25.785Z,17.58
2022-12-16T06:13:51.985Z,17.59
2022-12-16T06:16:18.185Z,17.59
2022-12-16T06:18:44.388Z,17.58
2022-12-16T06:21:10.687Z,17.57
2022-12-16T06:23:37.285Z,17.56
2022-12-16T06:26:03.648Z,17.55
2022-12-16T06:28:29.847Z,17.56
2022-12-16T06:30:56.038Z,17.57
2022-12-16T06:33:22.260Z,17.56
2022-12-16T06:35:48.440Z,17.56
2022-12-16T06:38:14.616Z,17.58
2022-12-16T06:40:41.072Z,17.61
2022-12-16T06:43:07.260Z,17.61
2022-12-16T06:45:35.058Z,17.61
2022-12-16T06:48:01.446Z,17.62
2022-12-16T06:50:27.664Z,17.61
2022-12-16T06:52:53.870Z,17.59
2022-12-16T06:55:20.063Z,17.59
2022-12-16T06:57:47.382Z,17.60
2022-12-16T07:00:13.578Z,17.60
2022-12-16T07:02:39.896Z,17.60
2022-12-16T07:05:06.709Z,17.57
2022-12-16T07:07:33.019Z,17.58
2022-12-16T07:09:59.257Z,17.57
2022-12-16T07:12:25.485Z,17.58
2022-12-16T07:14:51.743Z,17.57
2022-12-16T07:17:20.657Z,17.57
2022-12-16T07:19:46.839Z,17.57
2022-12-16T07:22:13.143Z,17.60
2022-12-16T07:24:39.357Z,17.58
2022-12-16T07:27:05.600Z,17.56
2022-12-16T07:29:31.810Z,17.54
2022-12-16T07:31:58.044Z,17.53
2022-12-16T07:34:24.243Z,17.51
2022-12-16T07:36:50.411Z,17.47
2022-12-16T07:39:16.620Z,17.40
2022-12-16T07:41:42.852Z,17.34
2022-12-16T07:44:09.056Z,17.31
2022-12-16T07:46:35.732Z,17.31
2022-12-16T07:49:02.079Z,17.29
2022-12-16T07:51:28.352Z,17.32
2022-12-16T07:53:54.582Z,17.31
2022-12-16T07:56:20.782Z,17.33
2022-12-16T07:58:47.064Z,17.36
2022-12-16T08:01:13.361Z,17.41
2022-12-16T08:03:39.911Z,17.45
2022-12-16T08:06:06.161Z,17.48
2022-12-16T08:08:32.359Z,17.51
2022-12-16T08:10:58.618Z,17.54
2022-12-16T08:13:26.058Z,17.59
2022-12-16T08:15:52.528Z,17.62
2022-12-16T08:18:19.163Z,17.64
2022-12-16T08:20:45.407Z,17.64
2022-12-16T08:23:11.624Z,17.65
2022-12-16T08:25:37.929Z,17.66
2022-12-16T08:28:04.131Z,17.68
2022-12-16T08:30:30.394Z,17.72
2022-12-16T08:35:42.950Z,17.75
2022-12-16T08:38:13.866Z,17.77
2022-12-16T08:40:40.463Z,17.79
2022-12-16T08:43:10.961Z,17.81
2022-12-16T08:45:39.034Z,17.83
2022-12-16T08:48:05.227Z,17.83
2022-12-16T08:50:31.440Z,17.86
2022-12-16T08:52:57.654Z,17.89
2022-12-16T08:55:27.953Z,17.92
2022-12-16T08:57:56.106Z,17.97
2022-12-16T09:00:22.445Z,18.05
2022-12-16T09:02:48.883Z,18.13
2022-12-16T09:05:15.381Z,18.20
2022-12-16T09:07:41.582Z,18.27
2022-12-16T09:10:07.792Z,18.35
2022-12-16T09:12:35.008Z,18.44
2022-12-16T09:15:01.250Z,18.51
2022-12-16T09:17:27.437Z,18.58
2022-12-16T09:19:54.047Z,18.63
2022-12-16T09:22:21.574Z,18.72
2022-12-16T09:24:47.752Z,18.78
2022-12-16T09:27:14.064Z,18.86
2022-12-16T09:29:43.623Z,18.93
2022-12-16T09:32:11.311Z,19.00
2022-12-16T09:34:37.503Z,19.04
2022-12-16T09:37:03.715Z,19.10
2022-12-16T09:39:29.923Z,19.16
2022-12-16T09:41:56.255Z,19.22
2022-12-16T09:44:22.679Z,19.26
2022-12-16T09:46:48.988Z,19.30
2022-12-16T09:49:15.288Z,19.36
2022-12-16T09:51:41.540Z,19.42
2022-12-16T09:54:07.758Z,19.47
2022-12-16T09:56:33.958Z,19.51
2022-12-16T09:59:00.199Z,19.55
2022-12-16T10:01:26.528Z,19.61
2022-12-16T10:03:52.931Z,19.69
2022-12-16T10:06:19.264Z,19.72
2022-12-16T10:08:45.549Z,19.78
2022-12-16T10:11:11.771Z,19.82
2022-12-16T10:13:37.992Z,19.89
2022-12-16T10:16:04.321Z,19.95
2022-12-16T10:18:30.583Z,20.01
2022-12-16T10:20:56.918Z,20.06
2022-12-16T10:23:23.129Z,20.13
2022-12-16T10:25:49.455Z,20.17
2022-12-16T10:28:15.806Z,20.22
2022-12-16T10:30:42.255Z,20.28
2022-12-16T10:33:08.550Z,20.35
2022-12-16T10:35:35.052Z,20.41
2022-12-16T10:38:01.248Z,20.47
2022-12-16T10:40:27.537Z,20.50
2022-12-16T10:42:53.715Z,20.47
2022-12-16T10:45:21.742Z,20.52
2022-12-16T10:47:47.944Z,20.59
2022-12-16T10:50:14.194Z,20.66
2022-12-16T10:52:40.503Z,20.71
2022-12-16T10:55:06.720Z,20.75
2022-12-16T10:57:32.899Z,20.82
2022-12-16T10:59:59.120Z,20.89
2022-12-16T11:02:25.519Z,20.89
2022-12-16T11:04:51.931Z,20.91
2022-12-16T11:07:21.884Z,20.97
2022-12-16T11:09:48.102Z,21.00
2022-12-16T11:12:14.445Z,21.05
2022-12-16T11:14:44.086Z,21.11
2022-12-16T11:17:16.753Z,21.17
2022-12-16T11:19:42.940Z,21.19
2022-12-16T11:22:09.136Z,21.20
2022-12-16T11:24:35.336Z,21.18
2022-12-16T11:27:01.511Z,21.18
2022-12-16T11:29:27.714Z,21.14
2022-12-16T11:31:57.930Z,21.13
2022-12-16T11:34:25.898Z,21.16
2022-12-16T11:36:52.148Z,21.19
2022-12-16T11:39:18.888Z,21.21
2022-12-16T11:41:45.072Z,21.24
2022-12-16T11:44:11.299Z,21.29
2022-12-16T11:46:37.557Z,21.35
2022-12-16T11:49:03.879Z,21.39
2022-12-16T11:51:30.144Z,21.42
2022-12-16T11:53:58.549Z,21.48
2022-12-16T11:56:24.879Z,21.51
2022-12-16T11:58:51.183Z,21.54
2022-12-16T12:01:17.365Z,21.57
2022-12-16T12:03:43.728Z,21.61
2022-12-16T12:06:10.155Z,21.63
2022-12-16T12:08:36.444Z,21.63
2022-12-16T12:11:02.670Z,21.63
2022-12-16T12:13:28.869Z,21.64
2022-12-16T12:15:55.206Z,21.65
2022-12-16T12:18:21.443Z,21.64
2022-12-16T12:20:47.782Z,21.63
2022-12-16T12:23:13.958Z,21.70
2022-12-16T12:25:40.211Z,21.91
2022-12-16T12:28:06.465Z,22.50
2022-12-16T12:30:32.774Z,22.13
2022-12-16T12:32:58.980Z,21.92
2022-12-16T12:35:25.234Z,21.85
2022-12-16T12:37:51.453Z,21.84
2022-12-16T12:40:17.644Z,21.84
2022-12-16T12:42:48.909Z,21.87
2022-12-16T12:45:15.646Z,21.91
2022-12-16T12:47:42.013Z,21.91
2022-12-16T12:50:08.244Z,21.92
2022-12-16T12:52:34.882Z,21.93
2022-12-16T12:55:01.162Z,21.94
2022-12-16T12:57:27.403Z,21.98
2022-12-16T12:59:58.573Z,22.02
2022-12-16T13:02:28.099Z,22.17
2022-12-16T13:04:54.452Z,22.91
2022-12-16T13:07:20.995Z,24.19
2022-12-16T13:09:47.205Z,25.14
2022-12-16T13:12:13.445Z,25.68
2022-12-16T13:14:39.782Z,26.66
2022-12-16T13:17:06.000Z,27.22
2022-12-16T13:19:32.308Z,27.49
2022-12-16T13:21:58.503Z,27.44
2022-12-16T13:24:24.717Z,26.63
2022-12-16T13:26:50.935Z,25.00
2022-12-16T13:29:17.147Z,24.05
2022-12-16T13:31:43.460Z,23.88
2022-12-16T13:34:09.733Z,24.70
2022-12-16T13:36:35.984Z,26.00
2022-12-16T13:39:02.202Z,26.33
2022-12-16T13:41:28.403Z,25.90
2022-12-16T13:43:54.689Z,25.25
2022-12-16T13:46:20.944Z,24.61
2022-12-16T13:48:47.179Z,24.36
2022-12-16T13:51:18.943Z,23.83
2022-12-16T13:53:45.576Z,23.39
2022-12-16T13:56:11.789Z,23.15
2022-12-16T13:58:37.990Z,22.99
2022-12-16T14:01:04.284Z,22.84
2022-12-16T14:03:30.799Z,22.73
2022-12-16T14:05:57.269Z,22.64
2022-12-16T14:08:23.551Z,22.59
2022-12-16T14:10:49.758Z,22.51
2022-12-16T14:13:15.965Z,22.45
2022-12-16T14:15:42.166Z,22.41
2022-12-16T14:18:08.407Z,22.35
2022-12-16T14:20:34.730Z,22.30
2022-12-16T14:23:00.932Z,22.25
2022-12-16T14:25:28.157Z,22.21
2022-12-16T14:27:54.485Z,22.14
2022-12-16T14:30:20.852Z,22.07
2022-12-16T14:32:47.141Z,21.98
2022-12-16T14:35:13.359Z,21.91
2022-12-16T14:37:39.643Z,21.83
2022-12-16T14:40:06.019Z,21.76
2022-12-16T14:42:32.197Z,21.72
2022-12-16T14:44:58.381Z,21.67
2022-12-16T14:47:24.576Z,21.62
2022-12-16T14:49:50.739Z,21.58
2022-12-16T14:52:16.967Z,21.55
2022-12-16T14:54:43.235Z,21.52
2022-12-16T14:57:09.462Z,21.49
2022-12-16T14:59:35.655Z,21.46
2022-12-16T15:02:02.247Z,21.42
2022-12-16T15:04:28.700Z,21.39
2022-12-16T15:06:54.959Z,21.35
2022-12-16T15:09:21.153Z,21.32
2022-12-16T15:11:47.456Z,21.29
2022-12-16T15:14:13.708Z,21.23
2022-12-16T15:16:39.925Z,21.21
2022-12-16T15:19:06.512Z,21.18
2022-12-16T15:21:32.757Z,21.16
2022-12-16T15:23:58.997Z,21.12
2022-12-16T15:26:25.384Z,21.09
2022-12-16T15:28:51.574Z,21.08
2022-12-16T15:31:17.806Z,21.04
2022-12-16T15:33:44.287Z,21.03
2022-12-16T15:36:10.479Z,21.01
2022-12-16T15:38:36.704Z,21.02
2022-12-16T15:41:02.934Z,21.02
2022-12-16T15:43:29.291Z,20.99
2022-12-16T15:45:55.565Z,20.96
2022-12-16T15:48:21.803Z,20.95
2022-12-16T15:50:47.986Z,20.94
2022-12-16T15:53:14.178Z,20.91
2022-12-16T15:55:40.523Z,20.89
2022-12-16T15:58:06.755Z,20.88
2022-12-16T16:00:32.957Z,20.87
2022-12-16T16:02:59.325Z,20.82
2022-12-16T16:05:25.646Z,20.79
2022-12-16T16:07:51.899Z,20.77
2022-12-16T16:10:18.273Z,20.76
2022-12-16T16:12:44.501Z,20.72
2022-12-16T16:15:12.242Z,20.70
2022-12-16T16:17:38.436Z,20.67
2022-12-16T16:20:04.706Z,20.66
2022-12-16T16:22:30.923Z,20.63
2022-12-16T16:24:57.145Z,20.59
2022-12-16T16:27:23.374Z,20.55
2022-12-16T16:29:49.561Z,20.49
2022-12-16T16:32:15.747Z,20.42
2022-12-16T16:34:41.983Z,20.32
2022-12-16T16:37:08.204Z,20.23
2022-12-16T16:39:34.568Z,20.17
2022-12-16T16:42:00.845Z,20.13
2022-12-16T16:44:27.091Z,20.10
2022-12-16T16:46:53.489Z,20.07
2022-12-16T16:49:19.760Z,20.05
2022-12-16T16:51:45.959Z,20.06
2022-12-16T16:54:12.209Z,20.04
2022-12-16T16:56:38.402Z,20.02
2022-12-16T16:59:04.638Z,20.01
2022-12-16T17:01:31.136Z,20.00
2022-12-16T17:03:57.556Z,19.98
2022-12-16T17:06:23.938Z,19.94
2022-12-16T17:08:50.167Z,19.93
2022-12-16T17:11:16.330Z,19.91
2022-12-16T17:13:42.541Z,19.90
2022-12-16T17:16:08.776Z,19.87
2022-12-16T17:18:36.566Z,19.86
2022-12-16T17:21:03.759Z,19.82
2022-12-16T17:23:30.303Z,19.82
2022-12-16T17:25:56.836Z,19.80
2022-12-16T17:28:23.136Z,19.79
2022-12-16T17:30:49.559Z,19.77
2022-12-16T17:33:15.762Z,19.76
2022-12-16T17:35:42.076Z,19.74
2022-12-16T17:38:08.279Z,19.72
2022-12-16T17:40:34.467Z,19.70
2022-12-16T17:43:00.754Z,19.70
2022-12-16T17:45:27.017Z,19.69
2022-12-16T17:47:53.409Z,19.67
2022-12-16T17:50:19.639Z,19.66
2022-12-16T17:52:45.868Z,19.65
2022-12-16T17:55:12.152Z,19.65
2022-12-16T17:57:38.399Z,19.63
2022-12-16T18:00:04.594Z,19.61
2022-12-16T18:02:30.896Z,19.60
2022-12-16T18:04:57.218Z,19.61
2022-12-16T18:07:23.416Z,19.59
2022-12-16T18:09:49.780Z,19.59
2022-12-16T18:12:16.030Z,19.59
2022-12-16T18:14:42.242Z,19.59
2022-12-16T18:17:08.427Z,19.57
2022-12-16T18:19:34.636Z,19.55
2022-12-16T18:22:00.791Z,19.53
2022-12-16T18:24:27.006Z,19.47
2022-12-16T18:26:53.223Z,19.40
2022-12-16T18:29:19.456Z,19.32
2022-12-16T18:31:46.009Z,19.24
2022-12-16T18:34:12.386Z,19.12
2022-12-16T18:36:38.622Z,18.98
2022-12-16T18:39:04.836Z,18.88
2022-12-16T18:41:31.098Z,18.78
2022-12-16T18:43:57.345Z,18.72
2022-12-16T18:46:23.570Z,18.69
2022-12-16T18:48:50.044Z,18.71
2022-12-16T18:51:16.333Z,18.74
2022-12-16T18:53:42.525Z,18.76
2022-12-16T18:56:08.723Z,18.79
2022-12-16T18:58:50.707Z,18.84
2022-12-16T19:01:17.722Z,18.85
2022-12-16T19:03:44.025Z,18.86
2022-12-16T19:06:10.308Z,18.87
2022-12-16T19:08:36.749Z,18.87
2022-12-16T19:11:03.062Z,18.85
2022-12-16T19:13:29.281Z,18.87
2022-12-16T19:15:55.530Z,18.89
2022-12-16T19:18:21.814Z,18.91
2022-12-16T19:20:48.377Z,18.92
2022-12-16T19:23:14.821Z,18.90
2022-12-16T19:25:41.024Z,18.89
2022-12-16T19:28:07.369Z,18.90
2022-12-16T19:30:33.544Z,18.90
2022-12-16T19:32:59.761Z,18.90
2022-12-16T19:35:25.955Z,18.89
2022-12-16T19:37:53.641Z,18.89
2022-12-16T19:40:20.004Z,18.91
2022-12-16T19:42:46.215Z,18.92
2022-12-16T19:45:12.473Z,18.93
2022-12-16T19:47:38.652Z,18.91
2022-12-16T19:50:04.989Z,18.90
2022-12-16T19:52:31.197Z,18.90
2022-12-16T19:54:57.410Z,18.87
2022-12-16T19:57:23.664Z,18.87
2022-12-16T19:59:49.884Z,18.86
2022-12-16T20:02:16.274Z,18.86
2022-12-16T20:04:42.640Z,18.86
2022-12-16T20:07:09.455Z,18.86
2022-12-16T20:09:35.730Z,18.88
2022-12-16T20:12:01.970Z,18.90
2022-12-16T20:14:28.159Z,18.91
2022-12-16T20:16:54.449Z,18.92
2022-12-16T20:19:22.920Z,18.92
2022-12-16T20:21:49.709Z,18.92
2022-12-16T20:24:19.838Z,18.92
2022-12-16T20:26:46.069Z,18.90
2022-12-16T20:29:12.409Z,18.91
2022-12-16T20:31:38.672Z,18.92
2022-12-16T20:34:04.939Z,18.92
2022-12-16T20:36:31.157Z,18.91
2022-12-16T20:38:57.365Z,18.91
2022-12-16T20:41:23.880Z,18.92
2022-12-16T20:43:50.088Z,18.93
2022-12-16T20:46:16.501Z,18.92
2022-12-16T20:48:42.743Z,18.91
2022-12-16T20:51:08.970Z,18.92
2022-12-16T20:53:35.932Z,18.91
2022-12-16T20:56:02.600Z,18.90
2022-12-16T20:58:28.819Z,18.87
2022-12-16T21:00:56.434Z,18.87
2022-12-16T21:03:22.777Z,18.85
2022-12-16T21:05:49.015Z,18.83
2022-12-16T21:08:15.183Z,18.81
2022-12-16T21:10:41.426Z,18.81
2022-12-16T21:13:07.644Z,18.81
2022-12-16T21:15:33.882Z,18.81
2022-12-16T21:18:00.126Z,18.79
2022-12-16T21:20:26.384Z,18.79
2022-12-16T21:22:52.643Z,18.77
2022-12-16T21:28:05.624Z,18.72
2022-12-16T21:30:31.797Z,18.72
2022-12-16T21:32:58.131Z,18.69
2022-12-16T21:35:24.426Z,18.68
2022-12-16T21:37:50.649Z,18.65
2022-12-16T21:40:17.868Z,18.64
2022-12-16T21:42:45.593Z,18.63
2022-12-16T21:45:11.873Z,18.63
2022-12-16T21:47:38.255Z,18.62
2022-12-16T21:50:04.441Z,18.61
2022-12-16T21:52:30.633Z,18.59
2022-12-16T21:54:56.846Z,18.58
2022-12-16T21:57:23.155Z,18.56
2022-12-16T21:59:49.454Z,18.52
2022-12-16T22:02:15.632Z,18.44
2022-12-16T22:04:41.863Z,18.35
2022-12-16T22:07:08.036Z,18.30
2022-12-16T22:09:35.504Z,18.28
2022-12-16T22:12:01.853Z,18.26
2022-12-16T22:14:28.039Z,18.27
2022-12-16T22:16:54.421Z,18.27
2022-12-16T22:19:23.079Z,18.30
2022-12-16T22:21:49.268Z,18.33
2022-12-16T22:24:15.564Z,18.34
2022-12-16T22:26:41.778Z,18.33
2022-12-16T22:29:07.996Z,18.34
2022-12-16T22:31:34.319Z,18.36
2022-12-16T22:34:00.842Z,18.33
2022-12-16T22:36:27.085Z,18.33
2022-12-16T22:38:56.250Z,18.32
2022-12-16T22:41:22.708Z,18.32
2022-12-16T22:43:48.898Z,18.33
2022-12-16T22:46:15.217Z,18.33
2022-12-16T22:48:41.497Z,18.32
2022-12-16T22:51:07.733Z,18.32
2022-12-16T22:53:33.931Z,18.35
2022-12-16T22:56:02.066Z,18.34
2022-12-16T22:58:28.599Z,18.35
2022-12-16T23:00:56.406Z,18.36
2022-12-16T23:03:22.749Z,18.36
2022-12-16T23:05:48.910Z,18.34
2022-12-16T23:08:15.142Z,18.31
2022-12-16T23:10:41.409Z,18.32
2022-12-16T23:13:07.619Z,18.32
2022-12-16T23:15:33.809Z,18.33
2022-12-16T23:18:00.142Z,18.33
2022-12-16T23:20:26.358Z,18.34
2022-12-16T23:22:52.636Z,18.33
2022-12-16T23:25:22.425Z,18.32
2022-12-16T23:27:48.677Z,18.30
2022-12-16T23:30:14.906Z,18.30
2022-12-16T23:32:31.304Z,18.75
2022-12-16T23:32:41.165Z,18.30
2022-12-16T23:35:07.384Z,18.30
2022-12-16T23:37:33.641Z,18.28
2022-12-16T23:39:59.813Z,18.26
2022-12-16T23:42:26.121Z,18.23
2022-12-16T23:44:56.329Z,18.24
2022-12-16T23:47:22.831Z,18.23
2022-12-16T23:49:49.081Z,18.23
2022-12-16T23:52:15.327Z,18.23
2022-12-16T23:54:41.539Z,18.23
2022-12-16T23:57:07.748Z,18.24
2022-12-16T23:59:34.051Z,18.23
